createdAt,value
2023-05-13T00:02:02.178Z,101947.41
2023-05-13T00:04:23.875Z,101948.19
2023-05-13T00:06:46.826Z,101946.13
2023-05-13T00:09:08.440Z,101946.44
2023-05-13T00:11:31.105Z,101943.19
2023-05-13T00:13:53.326Z,101945.88
2023-05-13T00:16:15.070Z,101948.50
2023-05-13T00:18:36.848Z,101947.22
2023-05-13T00:20:58.549Z,101946.41
2023-05-13T00:23:20.395Z,101945.94
2023-05-13T00:25:44.232Z,101947.09
2023-05-13T00:28:05.993Z,101943.03
2023-05-13T00:30:27.955Z,101942.25
2023-05-13T00:32:49.820Z,101933.44
2023-05-13T00:35:11.796Z,101949.63
2023-05-13T00:37:33.585Z,101952.72
2023-05-13T00:39:56.004Z,101943.13
2023-05-13T00:42:17.718Z,101945.41
2023-05-13T00:44:40.967Z,101945.41
2023-05-13T00:47:02.978Z,101947.38
2023-05-13T00:49:24.681Z,101951.63
2023-05-13T00:51:46.521Z,101951.16
2023-05-13T00:54:08.199Z,101953.81
2023-05-13T00:56:30.207Z,101951.38
2023-05-13T00:58:52.494Z,101956.81
2023-05-13T01:02:09.480Z,101944.41
2023-05-13T01:04:46.048Z,101948.91
2023-05-13T01:07:29.586Z,101942.38
2023-05-13T01:10:20.856Z,101949.75
2023-05-13T01:12:46.422Z,101945.09
2023-05-13T01:15:17.390Z,101940.56
2023-05-13T01:18:06.784Z,101940.75
2023-05-13T01:20:30.488Z,101949.97
2023-05-13T01:22:52.606Z,101951.09
2023-05-13T01:25:14.817Z,101948.66
2023-05-13T01:27:36.871Z,101950.50
2023-05-13T01:29:59.262Z,101942.03
2023-05-13T01:32:25.732Z,101948.25
2023-05-13T01:34:52.569Z,101952.84
2023-05-13T01:37:16.446Z,101954.19
2023-05-13T01:39:38.861Z,101951.13
2023-05-13T01:42:05.762Z,101941.72
2023-05-13T01:44:27.507Z,101946.31
2023-05-13T01:46:50.967Z,101943.72
2023-05-13T01:49:13.845Z,101949.47
2023-05-13T01:51:37.802Z,101941.81
2023-05-13T01:54:01.287Z,101945.56
2023-05-13T01:56:23.819Z,101945.06
2023-05-13T01:58:46.114Z,101952.41
2023-05-13T02:01:07.936Z,101949.16
2023-05-13T02:03:30.467Z,101953.41
2023-05-13T02:05:52.262Z,101943.31
2023-05-13T02:08:14.019Z,101951.00
2023-05-13T02:10:35.812Z,101943.69
2023-05-13T02:12:57.476Z,101949.91
2023-05-13T02:15:19.313Z,101947.78
2023-05-13T02:17:41.266Z,101945.19
2023-05-13T02:20:03.829Z,101940.66
2023-05-13T02:22:25.654Z,101937.22
2023-05-13T02:24:47.628Z,101941.00
2023-05-13T02:27:12.491Z,101951.91
2023-05-13T02:29:34.749Z,101954.19
2023-05-13T02:31:56.570Z,101950.94
2023-05-13T02:34:18.417Z,101952.09
2023-05-13T02:36:40.311Z,101957.94
2023-05-13T02:39:02.353Z,101957.47
2023-05-13T02:41:24.643Z,101956.16
2023-05-13T02:43:46.390Z,101951.28
2023-05-13T02:46:10.327Z,101945.13
2023-05-13T02:48:31.967Z,101948.06
2023-05-13T02:50:53.603Z,101946.94
2023-05-13T02:53:15.663Z,101940.22
2023-05-13T02:55:44.370Z,101941.22
2023-05-13T02:58:08.152Z,101944.97
2023-05-13T03:00:30.005Z,101945.59
2023-05-13T03:02:51.854Z,101949.03
2023-05-13T03:05:13.729Z,101941.06
2023-05-13T03:07:35.479Z,101945.78
2023-05-13T03:09:57.230Z,101941.38
2023-05-13T03:12:19.218Z,101938.94
2023-05-13T03:14:41.049Z,101935.34
2023-05-13T03:17:03.955Z,101942.84
2023-05-13T03:19:25.645Z,101938.78
2023-05-13T03:21:47.379Z,101943.34
2023-05-13T03:24:11.358Z,101936.47
2023-05-13T03:26:33.057Z,101946.22
2023-05-13T03:28:54.799Z,101945.25
2023-05-13T03:31:17.161Z,101942.00
2023-05-13T03:33:40.125Z,101944.28
2023-05-13T03:36:01.921Z,101943.78
2023-05-13T03:38:26.419Z,101945.56
2023-05-13T03:40:49.032Z,101948.16
2023-05-13T03:43:10.890Z,101952.06
2023-05-13T03:45:35.034Z,101953.22
2023-05-13T03:48:01.640Z,101957.09
2023-05-13T03:50:24.554Z,101948.63
2023-05-13T03:52:47.431Z,101955.47
2023-05-13T03:55:10.843Z,101953.69
2023-05-13T03:57:32.840Z,101952.72
2023-05-13T03:59:54.786Z,101961.16
2023-05-13T04:02:18.710Z,101951.56
2023-05-13T04:04:40.730Z,101946.69
2023-05-13T04:07:02.577Z,101958.91
2023-05-13T04:09:25.379Z,101960.00
2023-05-13T04:11:47.310Z,101959.41
2023-05-13T04:14:09.322Z,101959.06
2023-05-13T04:16:31.708Z,101963.94
2023-05-13T04:18:53.688Z,101961.31
2023-05-13T04:21:16.030Z,101965.53
2023-05-13T04:23:37.955Z,101965.06
2023-05-13T04:25:59.813Z,101955.13
2023-05-13T04:28:21.611Z,101958.22
2023-05-13T04:30:45.362Z,101967.34
2023-05-13T04:33:07.449Z,101958.72
2023-05-13T04:35:30.375Z,101967.00
2023-05-13T04:37:54.972Z,101969.28
2023-05-13T04:40:18.113Z,101971.56
2023-05-13T04:42:41.120Z,101967.16
2023-05-13T04:45:03.142Z,101963.09
2023-05-13T04:47:25.939Z,101973.66
2023-05-13T04:49:47.689Z,101972.53
2023-05-13T04:52:12.903Z,101965.69
2023-05-13T04:54:35.981Z,101967.63
2023-05-13T04:56:58.594Z,101980.66
2023-05-13T04:59:20.633Z,101977.06
2023-05-13T05:01:42.406Z,101976.56
2023-05-13T05:04:06.093Z,101979.69
2023-05-13T05:06:30.124Z,101982.91
2023-05-13T05:08:51.959Z,101987.63
2023-05-13T05:11:14.069Z,101990.09
2023-05-13T05:13:36.063Z,101983.91
2023-05-13T05:15:57.929Z,101984.41
2023-05-13T05:18:20.015Z,101992.88
2023-05-13T05:20:45.179Z,101994.50
2023-05-13T05:23:12.635Z,101997.44
2023-05-13T05:25:34.657Z,101998.75
2023-05-13T05:27:57.327Z,101998.91
2023-05-13T05:30:19.619Z,102006.53
2023-05-13T05:32:49.632Z,102005.44
2023-05-13T05:35:12.019Z,102003.47
2023-05-13T05:37:33.968Z,102011.63
2023-05-13T05:39:55.951Z,102006.78
2023-05-13T05:42:17.812Z,102012.78
2023-05-13T05:44:39.843Z,102008.06
2023-05-13T05:47:01.668Z,102014.47
2023-05-13T05:49:25.574Z,102003.09
2023-05-13T05:51:47.287Z,102005.53
2023-05-13T05:54:09.236Z,102006.53
2023-05-13T05:56:32.258Z,102009.78
2023-05-13T05:58:55.066Z,102007.66
2023-05-13T06:01:16.849Z,102013.84
2023-05-13T06:03:39.697Z,102016.81
2023-05-13T06:06:01.493Z,102016.81
2023-05-13T06:08:30.550Z,102011.75
2023-05-13T06:10:52.788Z,102016.63
2023-05-13T06:13:14.741Z,102013.72
2023-05-13T06:15:38.516Z,102020.72
2023-05-13T06:18:01.903Z,102029.84
2023-05-13T06:20:24.286Z,102020.38
2023-05-13T06:22:46.433Z,102022.97
2023-05-13T06:25:08.825Z,102020.72
2023-05-13T06:27:30.611Z,102023.47
2023-05-13T06:29:52.681Z,102024.97
2023-05-13T06:32:15.235Z,102019.41
2023-05-13T06:34:40.029Z,102017.25
2023-05-13T06:37:02.580Z,102017.09
2023-05-13T06:39:24.523Z,102022.59
2023-05-13T06:41:46.690Z,102021.22
2023-05-13T06:44:10.889Z,102026.75
2023-05-13T06:46:34.945Z,102029.78
2023-05-13T06:48:58.262Z,102032.47
2023-05-13T06:51:20.148Z,102021.66
2023-05-13T06:53:42.738Z,102028.34
2023-05-13T06:56:04.936Z,102027.50
2023-05-13T06:58:27.935Z,102035.25
2023-05-13T07:00:53.273Z,102035.00
2023-05-13T07:03:15.323Z,102039.13
2023-05-13T07:05:37.116Z,102034.97
2023-05-13T07:07:59.297Z,102033.38
2023-05-13T07:10:22.156Z,102034.00
2023-05-13T07:12:44.677Z,102039.34
2023-05-13T07:15:07.486Z,102041.81
2023-05-13T07:17:29.344Z,102035.69
2023-05-13T07:19:51.636Z,102042.03
2023-05-13T07:22:13.351Z,102041.34
2023-05-13T07:24:35.100Z,102041.84
2023-05-13T07:26:56.809Z,102031.56
2023-05-13T07:29:18.653Z,102035.53
2023-05-13T07:31:40.788Z,102034.47
2023-05-13T07:34:02.804Z,102031.81
2023-05-13T07:36:25.035Z,102040.06
2023-05-13T07:38:46.752Z,102023.66
2023-05-13T07:41:08.592Z,102026.56
2023-05-13T07:43:30.311Z,102033.72
2023-05-13T07:45:52.033Z,102031.75
2023-05-13T07:48:14.699Z,102036.69
2023-05-13T07:50:36.591Z,102034.81
2023-05-13T07:52:58.388Z,102037.34
2023-05-13T07:55:21.762Z,102040.63
2023-05-13T07:57:43.892Z,102036.44
2023-05-13T08:00:06.681Z,102033.03
2023-05-13T08:02:35.414Z,102039.63
2023-05-13T08:04:57.318Z,102039.94
2023-05-13T08:07:19.141Z,102041.22
2023-05-13T08:09:40.855Z,102044.09
2023-05-13T08:12:02.816Z,102045.09
2023-05-13T08:14:24.577Z,102039.81
2023-05-13T08:16:46.863Z,102041.53
2023-05-13T08:19:09.955Z,102037.13
2023-05-13T08:21:32.656Z,102040.19
2023-05-13T08:23:55.472Z,102037.00
2023-05-13T08:26:17.248Z,102040.59
2023-05-13T08:28:39.254Z,102043.28
2023-05-13T08:31:03.520Z,102039.41
2023-05-13T08:33:25.776Z,102032.44
2023-05-13T08:35:47.542Z,102030.78
2023-05-13T08:38:09.306Z,102036.16
2023-05-13T08:40:32.964Z,102032.06
2023-05-13T08:42:58.871Z,102024.00
2023-05-13T08:45:24.116Z,102033.13
2023-05-13T08:47:56.607Z,102028.25
2023-05-13T08:50:20.533Z,102031.69
2023-05-13T08:52:44.056Z,102032.72
2023-05-13T08:55:08.629Z,102024.50
2023-05-13T08:57:30.573Z,102026.97
2023-05-13T08:59:53.917Z,102026.78
2023-05-13T09:02:16.110Z,102024.22
2023-05-13T09:04:42.211Z,102029.56
2023-05-13T09:07:09.008Z,102030.06
2023-05-13T09:09:31.013Z,102030.19
2023-05-13T09:11:52.717Z,102019.94
2023-05-13T09:14:19.905Z,102024.06
2023-05-13T09:16:42.651Z,102024.19
2023-05-13T09:19:07.409Z,102027.59
2023-05-13T09:21:38.367Z,102022.53
2023-05-13T09:24:18.208Z,102016.41
2023-05-13T09:26:42.074Z,102012.66
2023-05-13T09:29:25.067Z,102008.50
2023-05-13T09:31:58.194Z,102011.53
2023-05-13T09:34:31.522Z,102012.03
2023-05-13T09:37:08.586Z,102013.72
2023-05-13T09:39:34.385Z,102004.94
2023-05-13T09:41:56.555Z,102000.97
2023-05-13T09:44:18.587Z,101997.38
2023-05-13T09:46:43.369Z,101999.06
2023-05-13T09:49:06.142Z,101997.13
2023-05-13T09:51:32.254Z,102003.53
2023-05-13T09:53:55.197Z,101997.59
2023-05-13T09:56:22.356Z,102000.47
2023-05-13T09:58:52.812Z,101997.28
2023-05-13T10:01:14.879Z,101997.75
2023-05-13T10:03:37.222Z,101997.00
2023-05-13T10:06:02.941Z,101989.78
2023-05-13T10:08:28.028Z,101989.03
2023-05-13T10:10:55.563Z,101991.94
2023-05-13T10:13:23.510Z,101987.56
2023-05-13T10:15:53.245Z,101981.16
2023-05-13T10:18:17.325Z,101986.78
2023-05-13T10:20:39.467Z,101977.19
2023-05-13T10:23:02.028Z,101987.28
2023-05-13T10:25:25.399Z,101983.63
2023-05-13T10:27:48.458Z,101980.81
2023-05-13T10:30:11.904Z,101976.81
2023-05-13T10:32:33.690Z,101973.19
2023-05-13T10:35:05.346Z,101968.44
2023-05-13T10:38:24.719Z,101973.28
2023-05-13T10:41:30.875Z,101972.53
2023-05-13T10:43:59.602Z,101972.53
2023-05-13T10:46:21.432Z,101979.38
2023-05-13T10:48:54.852Z,101974.16
2023-05-13T10:51:18.576Z,101968.94
2023-05-13T10:53:51.834Z,101976.97
2023-05-13T10:56:14.261Z,101968.13
2023-05-13T10:58:39.324Z,101972.97
2023-05-13T11:01:18.510Z,101960.09
2023-05-13T11:03:41.652Z,101973.00
2023-05-13T11:06:19.661Z,101968.94
2023-05-13T11:08:48.062Z,101967.31
2023-05-13T11:11:23.417Z,101963.69
2023-05-13T11:13:45.496Z,101956.88
2023-05-13T11:16:11.197Z,101963.31
2023-05-13T11:18:35.241Z,101958.09
2023-05-13T11:21:05.578Z,101958.91
2023-05-13T11:23:27.530Z,101952.47
2023-05-13T11:26:17.088Z,101957.69
2023-05-13T11:29:03.500Z,101948.41
2023-05-13T11:31:28.754Z,101944.75
2023-05-13T11:34:11.130Z,101952.38
2023-05-13T11:36:34.814Z,101945.97
2023-05-13T11:39:06.564Z,101944.34
2023-05-13T11:41:33.547Z,101943.91
2023-05-13T11:43:55.871Z,101942.34
2023-05-13T11:46:23.086Z,101945.56
2023-05-13T11:48:44.970Z,101950.78
2023-05-13T11:51:06.813Z,101942.34
2023-05-13T11:53:28.570Z,101945.53
2023-05-13T11:55:51.781Z,101943.91
2023-05-13T11:58:17.985Z,101947.09
2023-05-13T12:00:40.153Z,101926.94
2023-05-13T12:03:10.307Z,101930.47
2023-05-13T12:05:32.405Z,101919.94
2023-05-13T12:07:58.880Z,101922.75
2023-05-13T12:10:20.819Z,101922.25
2023-05-13T12:12:45.781Z,101920.22
2023-05-13T12:15:16.452Z,101924.25
2023-05-13T12:17:38.971Z,101920.31
2023-05-13T12:20:28.225Z,101926.91
2023-05-13T12:22:52.841Z,101930.16
2023-05-13T12:25:39.974Z,101918.84
2023-05-13T12:28:21.757Z,101913.25
2023-05-13T12:30:57.637Z,101907.56
2023-05-13T12:33:33.795Z,101916.03
2023-05-13T12:36:25.956Z,101915.75
2023-05-13T12:39:00.246Z,101918.97
2023-05-13T12:41:27.197Z,101922.97
2023-05-13T12:43:49.274Z,101910.88
2023-05-13T12:46:11.665Z,101917.28
2023-05-13T12:48:33.851Z,101907.53
2023-05-13T12:50:56.556Z,101903.06
2023-05-13T12:53:18.819Z,101909.38
2023-05-13T12:55:41.521Z,101911.41
2023-05-13T12:58:04.205Z,101904.09
2023-05-13T13:00:26.992Z,101902.84
2023-05-13T13:02:50.461Z,101897.94
2023-05-13T13:05:12.588Z,101908.97
2023-05-13T13:07:34.605Z,101911.16
2023-05-13T13:09:57.510Z,101913.97
2023-05-13T13:12:19.264Z,101908.41
2023-05-13T13:14:41.332Z,101906.41
2023-05-13T13:17:03.160Z,101912.41
2023-05-13T13:19:24.977Z,101921.38
2023-05-13T13:21:46.979Z,101911.69
2023-05-13T13:24:09.193Z,101908.03
2023-05-13T13:26:31.184Z,101905.94
2023-05-13T13:28:53.158Z,101903.06
2023-05-13T13:31:16.086Z,101893.72
2023-05-13T13:33:39.047Z,101895.25
2023-05-13T13:36:00.884Z,101898.81
2023-05-13T13:38:22.770Z,101896.78
2023-05-13T13:40:44.556Z,101894.75
2023-05-13T13:43:07.672Z,101892.00
2023-05-13T13:45:29.588Z,101888.75
2023-05-13T13:47:52.023Z,101891.19
2023-05-13T13:50:14.022Z,101894.41
2023-05-13T13:52:35.804Z,101883.03
2023-05-13T13:54:57.567Z,101885.03
2023-05-13T13:57:19.655Z,101886.09
2023-05-13T13:59:41.794Z,101886.88
2023-05-13T14:02:03.795Z,101883.66
2023-05-13T14:04:27.736Z,101872.72
2023-05-13T14:06:52.698Z,101873.13
2023-05-13T14:09:15.509Z,101869.06
2023-05-13T14:11:38.194Z,101870.19
2023-05-13T14:13:59.955Z,101858.81
2023-05-13T14:16:21.754Z,101860.75
2023-05-13T14:18:44.367Z,101861.25
2023-05-13T14:21:06.109Z,101856.41
2023-05-13T14:23:27.815Z,101857.59
2023-05-13T14:25:49.590Z,101855.56
2023-05-13T14:28:13.302Z,101845.84
2023-05-13T14:30:35.016Z,101854.31
2023-05-13T14:32:56.790Z,101845.84
2023-05-13T14:35:18.908Z,101853.53
2023-05-13T14:37:41.518Z,101847.09
2023-05-13T14:40:04.346Z,101853.19
2023-05-13T14:42:26.946Z,101847.09
2023-05-13T14:44:48.614Z,101849.06
2023-05-13T14:47:10.748Z,101842.63
2023-05-13T14:49:32.461Z,101854.59
2023-05-13T14:51:54.154Z,101847.38
2023-05-13T14:54:17.830Z,101837.41
2023-05-13T14:56:41.501Z,101837.03
2023-05-13T14:59:03.409Z,101841.06
2023-05-13T15:01:25.238Z,101830.59
2023-05-13T15:03:47.116Z,101831.44
2023-05-13T15:06:09.238Z,101829.47
2023-05-13T15:08:31.275Z,101833.56
2023-05-13T15:10:52.961Z,101823.09
2023-05-13T15:13:14.709Z,101827.16
2023-05-13T15:15:36.571Z,101821.06
2023-05-13T15:17:58.301Z,101825.84
2023-05-13T15:20:20.388Z,101818.94
2023-05-13T15:22:44.020Z,101812.06
2023-05-13T15:25:06.687Z,101818.06
2023-05-13T15:27:28.668Z,101816.88
2023-05-13T15:29:50.661Z,101831.75
2023-05-13T15:32:12.514Z,101817.25
2023-05-13T15:34:35.294Z,101811.69
2023-05-13T15:36:56.988Z,101822.22
2023-05-13T15:39:19.030Z,101806.47
2023-05-13T15:41:40.770Z,101811.34
2023-05-13T15:44:02.666Z,101812.16
2023-05-13T15:46:25.695Z,101812.16
2023-05-13T15:48:47.425Z,101799.22
2023-05-13T15:51:09.969Z,101806.56
2023-05-13T15:53:31.866Z,101800.50
2023-05-13T15:55:54.409Z,101796.06
2023-05-13T15:58:16.286Z,101803.72
2023-05-13T16:00:38.022Z,101793.63
2023-05-13T16:03:00.068Z,101798.53
2023-05-13T16:05:21.940Z,101797.78
2023-05-13T16:07:44.371Z,101798.63
2023-05-13T16:10:07.558Z,101791.41
2023-05-13T16:12:31.108Z,101798.28
2023-05-13T16:14:52.762Z,101798.69
2023-05-13T16:17:15.010Z,101791.06
2023-05-13T16:19:36.826Z,101795.47
2023-05-13T16:21:58.681Z,101795.03
2023-05-13T16:24:22.514Z,101787.78
2023-05-13T16:26:44.493Z,101786.59
2023-05-13T16:29:06.352Z,101788.66
2023-05-13T16:31:28.111Z,101784.72
2023-05-13T16:33:50.530Z,101791.63
2023-05-13T16:36:12.397Z,101792.81
2023-05-13T16:38:35.462Z,101798.13
2023-05-13T16:40:57.704Z,101794.50
2023-05-13T16:43:19.492Z,101791.66
2023-05-13T16:45:42.628Z,101790.88
2023-05-13T16:48:04.934Z,101790.09
2023-05-13T16:50:26.853Z,101794.94
2023-05-13T16:52:48.854Z,101793.31
2023-05-13T16:55:10.867Z,101781.66
2023-05-13T16:57:32.897Z,101787.66
2023-05-13T16:59:55.562Z,101792.53
2023-05-13T17:02:17.424Z,101794.97
2023-05-13T17:04:39.495Z,101792.19
2023-05-13T17:07:02.268Z,101795.06
2023-05-13T17:09:24.484Z,101793.47
2023-05-13T17:11:46.235Z,101784.22
2023-05-13T17:14:08.040Z,101791.06
2023-05-13T17:16:30.452Z,101793.47
2023-05-13T17:18:53.131Z,101790.25
2023-05-13T17:21:15.354Z,101789.84
2023-05-13T17:23:37.118Z,101801.09
2023-05-13T17:25:59.360Z,101793.09
2023-05-13T17:28:21.444Z,101793.50
2023-05-13T17:30:43.753Z,101791.47
2023-05-13T17:33:05.770Z,101790.28
2023-05-13T17:35:28.041Z,101790.63
2023-05-13T17:37:50.026Z,101795.13
2023-05-13T17:40:12.826Z,101795.06
2023-05-13T17:42:35.250Z,101790.28
2023-05-13T17:44:57.389Z,101792.28
2023-05-13T17:47:21.702Z,101795.09
2023-05-13T17:49:44.183Z,101791.44
2023-05-13T17:52:06.829Z,101784.59
2023-05-13T17:54:28.684Z,101791.81
2023-05-13T17:56:50.782Z,101793.00
2023-05-13T17:59:12.723Z,101792.56
2023-05-13T18:01:34.878Z,101787.69
2023-05-13T18:03:57.107Z,101793.72
2023-05-13T18:06:19.284Z,101787.63
2023-05-13T18:08:41.383Z,101793.25
2023-05-13T18:11:03.214Z,101786.75
2023-05-13T18:13:25.625Z,101792.28
2023-05-13T18:15:47.894Z,101794.22
2023-05-13T18:18:10.212Z,101794.56
2023-05-13T18:20:33.954Z,101797.84
2023-05-13T18:22:56.873Z,101794.72
2023-05-13T18:25:19.122Z,101791.53
2023-05-13T18:27:41.333Z,101796.38
2023-05-13T18:30:03.429Z,101798.50
2023-05-13T18:32:26.660Z,101803.88
2023-05-13T18:34:48.349Z,101805.97
2023-05-13T18:37:09.987Z,101802.34
2023-05-13T18:39:31.692Z,101808.00
2023-05-13T18:41:53.392Z,101809.63
2023-05-13T18:44:15.757Z,101804.75
2023-05-13T18:46:37.502Z,101811.13
2023-05-13T18:49:00.601Z,101807.88
2023-05-13T18:51:22.194Z,101817.84
2023-05-13T18:53:45.171Z,101816.13
2023-05-13T18:56:06.964Z,101821.66
2023-05-13T18:58:28.621Z,101826.81
2023-05-13T19:00:50.413Z,101830.81
2023-05-13T19:03:12.317Z,101831.56
2023-05-13T19:05:34.137Z,101830.28
2023-05-13T19:07:57.203Z,101833.03
2023-05-13T19:10:19.107Z,101832.88
2023-05-13T19:12:40.770Z,101835.25
2023-05-13T19:15:02.651Z,101839.16
2023-05-13T19:17:24.691Z,101837.06
2023-05-13T19:19:46.410Z,101845.81
2023-05-13T19:22:08.051Z,101846.94
2023-05-13T19:24:29.750Z,101850.06
2023-05-13T19:26:51.446Z,101846.75
2023-05-13T19:29:13.209Z,101849.00
2023-05-13T19:31:34.971Z,101856.13
2023-05-13T19:33:56.673Z,101852.75
2023-05-13T19:36:18.285Z,101854.19
2023-05-13T19:38:40.058Z,101861.25
2023-05-13T19:41:01.754Z,101860.34
2023-05-13T19:43:24.752Z,101864.25
2023-05-13T19:45:46.458Z,101864.19
2023-05-13T19:48:08.516Z,101868.56
2023-05-13T19:50:30.224Z,101874.50
2023-05-13T19:52:52.530Z,101878.41
2023-05-13T19:55:14.229Z,101876.00
2023-05-13T19:57:35.970Z,101875.09
2023-05-13T19:59:59.486Z,101878.28
2023-05-13T20:02:21.185Z,101883.03
2023-05-13T20:04:42.795Z,101879.31
2023-05-13T20:07:05.088Z,101883.28
2023-05-13T20:09:27.509Z,101885.72
2023-05-13T20:11:49.115Z,101882.44
2023-05-13T20:14:12.845Z,101878.69
2023-05-13T20:16:34.571Z,101885.31
2023-05-13T20:18:56.344Z,101882.00
2023-05-13T20:21:18.139Z,101885.19
2023-05-13T20:23:41.461Z,101885.19
2023-05-13T20:26:03.145Z,101880.84
2023-05-13T20:28:25.001Z,101883.25
2023-05-13T20:30:46.686Z,101882.88
2023-05-13T20:33:09.039Z,101884.50
2023-05-13T20:35:30.817Z,101880.09
2023-05-13T20:37:52.469Z,101884.88
2023-05-13T20:40:14.141Z,101884.88
2023-05-13T20:42:36.042Z,101887.25
2023-05-13T20:44:57.611Z,101886.81
2023-05-13T20:47:20.578Z,101890.34
2023-05-13T20:49:43.856Z,101890.28
2023-05-13T20:52:08.506Z,101883.00
2023-05-13T20:54:31.106Z,101893.34
2023-05-13T20:56:52.758Z,101886.84
2023-05-13T20:59:14.352Z,101876.03
2023-05-13T21:01:36.123Z,101885.63
2023-05-13T21:03:57.965Z,101881.94
2023-05-13T21:06:19.623Z,101882.69
2023-05-13T21:08:41.282Z,101877.44
2023-05-13T21:11:04.018Z,101878.66
2023-05-13T21:13:25.979Z,101880.19
2023-05-13T21:15:47.697Z,101881.75
2023-05-13T21:18:09.383Z,101886.53
2023-05-13T21:20:32.692Z,101882.84
2023-05-13T21:22:54.319Z,101881.88
2023-05-13T21:25:16.101Z,101889.03
2023-05-13T21:27:38.202Z,101876.16
2023-05-13T21:29:59.795Z,101878.00
2023-05-13T21:32:21.705Z,101877.91
2023-05-13T21:34:43.325Z,101881.03
2023-05-13T21:37:05.320Z,101884.13
2023-05-13T21:39:26.935Z,101877.22
2023-05-13T21:41:48.596Z,101872.72
2023-05-13T21:44:10.392Z,101876.69
2023-05-13T21:46:32.316Z,101877.41
2023-05-13T21:48:54.075Z,101876.63
2023-05-13T21:51:15.761Z,101878.16
2023-05-13T21:53:37.460Z,101875.28
2023-05-13T21:56:00.182Z,101874.84
2023-05-13T21:58:23.564Z,101878.38
2023-05-13T22:00:45.446Z,101880.28
2023-05-13T22:03:07.443Z,101876.22
2023-05-13T22:05:29.191Z,101874.16
2023-05-13T22:07:51.076Z,101878.50
2023-05-13T22:10:12.875Z,101881.22
2023-05-13T22:12:34.593Z,101881.88
2023-05-13T22:14:56.217Z,101875.31
2023-05-13T22:17:17.954Z,101878.38
2023-05-13T22:19:39.710Z,101879.47
2023-05-13T22:22:01.383Z,101873.72
2023-05-13T22:24:23.065Z,101883.16
2023-05-13T22:26:44.992Z,101884.69
2023-05-13T22:29:06.669Z,101881.81
2023-05-13T22:31:28.418Z,101882.94
2023-05-13T22:33:49.978Z,101874.00
2023-05-13T22:36:14.399Z,101881.84
2023-05-13T22:38:37.190Z,101883.38
2023-05-13T22:40:58.820Z,101878.88
2023-05-13T22:43:20.425Z,101873.56
2023-05-13T22:45:42.054Z,101882.22
2023-05-13T22:48:04.018Z,101872.94
2023-05-13T22:50:25.869Z,101865.66
2023-05-13T22:52:48.185Z,101866.38
2023-05-13T22:55:10.245Z,101857.09
2023-05-13T22:57:31.899Z,101858.63
2023-05-13T22:59:53.548Z,101868.06
2023-05-13T23:02:15.303Z,101866.34
2023-05-13T23:04:36.939Z,101864.75
2023-05-13T23:06:58.667Z,101865.47
2023-05-13T23:09:20.399Z,101859.75
2023-05-13T23:11:41.999Z,101857.81
2023-05-13T23:14:04.174Z,101860.63
2023-05-13T23:16:26.028Z,101854.09
2023-05-13T23:18:47.754Z,101852.38
2023-05-13T23:21:09.444Z,101859.81
2023-05-13T23:23:32.718Z,101854.97
2023-05-13T23:25:54.373Z,101857.69
2023-05-13T23:28:16.430Z,101853.63
2023-05-13T23:30:38.333Z,101846.34
2023-05-13T23:33:00.012Z,101846.22
2023-05-13T23:35:21.772Z,101843.81
2023-05-13T23:37:43.421Z,101843.81
2023-05-13T23:40:06.170Z,101849.25
2023-05-13T23:42:28.582Z,101849.19
2023-05-13T23:44:50.314Z,101850.59
2023-05-13T23:47:12.108Z,101847.72
2023-05-13T23:49:33.731Z,101845.63
2023-05-13T23:51:55.503Z,101841.22
2023-05-13T23:54:17.164Z,101841.13
2023-05-13T23:56:38.878Z,101833.13
2023-05-13T23:59:00.728Z,101829.53
